createdAt,value
2023-02-12T00:01:22.434Z,31.53
2023-02-12T00:03:49.659Z,30.13
2023-02-12T00:06:17.347Z,24.87
2023-02-12T00:08:44.511Z,25.40
2023-02-12T00:11:16.590Z,26.00
2023-02-12T00:13:44.184Z,24.27
2023-02-12T00:16:16.724Z,27.17
2023-02-12T00:18:45.097Z,27.80
2023-02-12T00:21:14.102Z,32.30
2023-02-12T00:23:41.682Z,30.77
2023-02-12T00:26:10.683Z,30.53
2023-02-12T00:28:38.084Z,33.70
2023-02-12T00:31:13.278Z,32.30
2023-02-12T00:33:40.497Z,29.87
2023-02-12T00:36:08.758Z,32.70
2023-02-12T00:38:35.730Z,31.47
2023-02-12T00:41:03.000Z,27.47
2023-02-12T00:43:29.944Z,33.63
2023-02-12T00:45:57.327Z,29.37
2023-02-12T00:48:24.562Z,28.50
2023-02-12T00:50:51.614Z,28.57
2023-02-12T00:53:19.676Z,28.10
2023-02-12T00:55:46.875Z,31.03
2023-02-12T00:58:14.147Z,30.57
2023-02-12T01:00:41.113Z,32.13
2023-02-12T01:03:08.079Z,32.33
2023-02-12T01:05:35.410Z,33.37
2023-02-12T01:08:02.758Z,33.00
2023-02-12T01:10:29.791Z,44.03
2023-02-12T01:12:57.269Z,43.93
2023-02-12T01:15:24.876Z,36.33
2023-02-12T01:17:53.323Z,36.47
2023-02-12T01:20:22.689Z,37.40
2023-02-12T01:22:49.635Z,36.93
2023-02-12T01:25:20.129Z,36.93
2023-02-12T01:27:47.756Z,43.07
2023-02-12T01:30:16.038Z,38.00
2023-02-12T01:32:44.153Z,45.10
2023-02-12T01:35:11.637Z,35.23
2023-02-12T01:37:39.191Z,38.03
2023-02-12T01:40:08.300Z,32.50
2023-02-12T01:42:35.584Z,36.43
2023-02-12T01:45:14.739Z,33.30
2023-02-12T01:47:45.765Z,33.40
2023-02-12T01:50:18.997Z,34.80
2023-02-12T01:52:51.250Z,35.53
2023-02-12T01:55:20.581Z,52.17
2023-02-12T01:57:49.196Z,42.60
2023-02-12T02:00:21.331Z,40.00
2023-02-12T02:02:58.635Z,39.27
2023-02-12T02:06:03.728Z,45.17
2023-02-12T02:08:31.078Z,52.33
2023-02-12T02:10:58.123Z,42.70
2023-02-12T02:13:43.564Z,32.57
2023-02-12T02:16:37.264Z,33.33
2023-02-12T02:19:14.609Z,38.60
2023-02-12T02:21:59.959Z,33.70
2023-02-12T02:25:00.341Z,39.07
2023-02-12T02:27:39.230Z,38.63
2023-02-12T02:30:28.116Z,38.30
2023-02-12T02:33:04.766Z,35.93
2023-02-12T02:35:50.264Z,37.97
2023-02-12T02:38:32.921Z,38.00
2023-02-12T02:41:12.125Z,37.10
2023-02-12T02:43:44.622Z,39.17
2023-02-12T02:46:28.067Z,42.03
2023-02-12T02:49:01.153Z,32.63
2023-02-12T02:51:35.960Z,26.53
2023-02-12T02:54:21.433Z,30.33
2023-02-12T02:56:51.426Z,28.77
2023-02-12T02:59:25.593Z,32.20
2023-02-12T03:02:02.724Z,35.33
2023-02-12T03:04:58.345Z,36.20
2023-02-12T03:07:34.192Z,46.73
2023-02-12T03:10:31.459Z,40.30
2023-02-12T03:13:03.948Z,38.30
2023-02-12T03:15:34.676Z,36.17
2023-02-12T03:18:07.638Z,44.70
2023-02-12T03:20:44.245Z,50.33
2023-02-12T03:23:15.897Z,46.40
2023-02-12T03:26:01.679Z,54.07
2023-02-12T03:28:36.732Z,50.20
2023-02-12T03:31:22.444Z,55.77
2023-02-12T03:34:13.846Z,49.93
2023-02-12T03:37:13.018Z,46.40
2023-02-12T03:40:03.311Z,48.73
2023-02-12T03:42:59.680Z,51.07
2023-02-12T03:45:45.317Z,43.07
2023-02-12T03:48:31.145Z,49.13
2023-02-12T03:51:12.838Z,50.37
2023-02-12T03:53:40.042Z,51.10
2023-02-12T03:56:13.590Z,51.53
2023-02-12T03:58:42.524Z,44.27
2023-02-12T04:01:10.348Z,47.13
2023-02-12T04:03:37.562Z,38.73
2023-02-12T04:06:05.128Z,37.77
2023-02-12T04:08:32.887Z,25.40
2023-02-12T04:11:25.415Z,33.30
2023-02-12T04:14:27.116Z,26.07
2023-02-12T04:17:13.016Z,27.10
2023-02-12T04:19:59.009Z,30.40
2023-02-12T04:22:52.936Z,37.17
2023-02-12T04:25:45.248Z,35.20
2023-02-12T04:28:29.917Z,36.67
2023-02-12T04:31:21.194Z,38.50
2023-02-12T04:34:13.666Z,38.60
2023-02-12T04:36:59.027Z,42.67
2023-02-12T04:39:32.379Z,39.13
2023-02-12T04:42:01.098Z,48.43
2023-02-12T04:44:31.601Z,38.53
2023-02-12T04:46:58.605Z,52.13
2023-02-12T04:49:25.757Z,44.47
2023-02-12T04:51:53.456Z,52.40
2023-02-12T04:54:22.399Z,49.07
2023-02-12T04:56:50.369Z,48.97
2023-02-12T04:59:17.671Z,50.57
2023-02-12T05:01:45.796Z,45.80
2023-02-12T05:04:15.281Z,63.07
2023-02-12T05:06:43.795Z,70.27
2023-02-12T05:09:17.285Z,61.53
2023-02-12T05:11:44.634Z,51.43
2023-02-12T05:14:12.116Z,55.70
2023-02-12T05:16:41.687Z,63.13
2023-02-12T05:19:09.731Z,66.63
2023-02-12T05:21:38.443Z,55.80
2023-02-12T05:24:05.970Z,56.20
2023-02-12T05:26:32.949Z,50.13
2023-02-12T05:28:59.976Z,54.63
2023-02-12T05:31:27.098Z,52.83
2023-02-12T05:33:54.165Z,55.13
2023-02-12T05:36:23.681Z,49.93
2023-02-12T05:38:51.664Z,48.63
2023-02-12T05:41:24.433Z,52.37
2023-02-12T05:43:52.120Z,45.97
2023-02-12T05:46:20.915Z,52.43
2023-02-12T05:48:48.743Z,53.67
2023-02-12T05:51:21.934Z,64.43
2023-02-12T05:53:53.395Z,63.63
2023-02-12T05:56:28.125Z,56.03
2023-02-12T05:58:57.818Z,56.60
2023-02-12T06:01:29.961Z,65.47
2023-02-12T06:03:58.403Z,63.80
2023-02-12T06:06:27.238Z,67.40
2023-02-12T06:08:54.389Z,66.73
2023-02-12T06:11:21.496Z,48.03
2023-02-12T06:13:48.997Z,46.30
2023-02-12T06:16:22.939Z,48.83
2023-02-12T06:18:51.136Z,46.87
2023-02-12T06:21:20.245Z,49.33
2023-02-12T06:23:47.925Z,45.13
2023-02-12T06:26:15.545Z,43.13
2023-02-12T06:28:42.635Z,40.60
2023-02-12T06:31:27.924Z,39.13
2023-02-12T06:33:57.349Z,39.03
2023-02-12T06:36:24.860Z,41.00
2023-02-12T06:38:52.286Z,47.23
2023-02-12T06:41:19.559Z,47.13
2023-02-12T06:43:46.517Z,46.83
2023-02-12T06:46:15.209Z,53.27
2023-02-12T06:48:42.657Z,47.53
2023-02-12T06:51:17.706Z,48.17
2023-02-12T06:53:45.327Z,47.00
2023-02-12T06:56:13.750Z,44.33
2023-02-12T06:58:42.375Z,48.20
2023-02-12T07:01:15.184Z,55.00
2023-02-12T07:03:42.954Z,48.07
2023-02-12T07:06:10.745Z,56.00
2023-02-12T07:08:37.724Z,50.17
2023-02-12T07:11:05.305Z,62.80
2023-02-12T07:13:34.993Z,50.60
2023-02-12T07:16:10.848Z,75.00
2023-02-12T07:18:38.316Z,60.33
2023-02-12T07:21:07.028Z,47.03
2023-02-12T07:23:36.862Z,50.97
2023-02-12T07:26:07.193Z,50.43
2023-02-12T07:28:35.209Z,63.40
2023-02-12T07:31:15.121Z,51.63
2023-02-12T07:33:43.024Z,56.30
2023-02-12T07:36:13.865Z,59.73
2023-02-12T07:38:41.658Z,64.40
2023-02-12T07:41:18.072Z,59.97
2023-02-12T07:43:46.684Z,59.77
2023-02-12T07:46:19.160Z,63.67
2023-02-12T07:48:48.378Z,68.73
2023-02-12T07:51:26.665Z,68.50
2023-02-12T07:53:53.918Z,59.20
2023-02-12T07:56:31.027Z,61.03
2023-02-12T07:59:00.042Z,62.77
2023-02-12T08:01:35.707Z,57.73
2023-02-12T08:04:05.365Z,58.70
2023-02-12T08:06:35.101Z,59.23
2023-02-12T08:09:15.073Z,62.50
2023-02-12T08:11:43.541Z,50.67
2023-02-12T08:14:35.334Z,55.40
2023-02-12T08:17:02.240Z,54.97
2023-02-12T08:19:29.282Z,57.13
2023-02-12T08:21:57.240Z,59.97
2023-02-12T08:24:24.782Z,53.13
2023-02-12T08:26:56.948Z,56.10
2023-02-12T08:29:33.912Z,56.13
2023-02-12T08:32:03.921Z,53.37
2023-02-12T08:34:33.788Z,52.73
2023-02-12T08:37:01.320Z,56.10
2023-02-12T08:39:30.093Z,51.20
2023-02-12T08:41:58.560Z,50.73
2023-02-12T08:44:26.013Z,52.10
2023-02-12T08:46:55.743Z,71.20
2023-02-12T08:49:26.462Z,57.80
2023-02-12T08:51:56.380Z,55.20
2023-02-12T08:54:25.776Z,57.77
2023-02-12T08:56:57.591Z,59.87
2023-02-12T08:59:24.676Z,56.37
2023-02-12T09:01:53.285Z,55.37
2023-02-12T09:04:23.051Z,58.37
2023-02-12T09:06:51.155Z,70.60
2023-02-12T09:09:19.929Z,67.37
2023-02-12T09:11:49.425Z,65.63
2023-02-12T09:14:18.958Z,68.53
2023-02-12T09:16:46.204Z,57.17
2023-02-12T09:19:15.240Z,64.67
2023-02-12T09:21:44.788Z,68.30
2023-02-12T09:24:12.127Z,60.07
2023-02-12T09:26:40.081Z,65.33
2023-02-12T09:29:09.427Z,63.80
2023-02-12T09:31:37.754Z,65.33
2023-02-12T09:34:06.770Z,66.77
2023-02-12T09:36:35.784Z,67.50
2023-02-12T09:39:06.044Z,74.83
2023-02-12T09:41:55.079Z,80.23
2023-02-12T09:44:26.728Z,64.47
2023-02-12T09:47:11.070Z,58.87
2023-02-12T09:50:08.156Z,81.85
2023-02-12T09:52:36.002Z,52.43
2023-02-12T09:55:03.747Z,54.28
2023-02-12T09:57:38.503Z,53.78
2023-02-12T10:00:07.244Z,51.60
2023-02-12T10:02:45.453Z,53.50
2023-02-12T10:05:24.318Z,53.80
2023-02-12T10:08:24.607Z,55.97
2023-02-12T10:11:05.815Z,50.25
2023-02-12T10:13:36.198Z,58.13
2023-02-12T10:16:45.415Z,52.97
2023-02-12T10:19:57.744Z,41.35
2023-02-12T10:22:56.152Z,39.05
2023-02-12T10:25:26.743Z,34.58
2023-02-12T10:27:57.415Z,29.95
2023-02-12T10:30:55.825Z,30.67
2023-02-12T10:33:31.531Z,25.02
2023-02-12T10:36:29.026Z,58.42
2023-02-12T10:39:02.831Z,23.73
2023-02-12T10:41:32.205Z,24.30
2023-02-12T10:43:59.165Z,23.73
2023-02-12T10:46:28.726Z,29.13
2023-02-12T10:48:58.969Z,31.98
2023-02-12T10:51:38.676Z,28.48
2023-02-12T10:54:43.667Z,18.17
2023-02-12T10:57:12.775Z,26.30
2023-02-12T10:59:41.544Z,24.90
2023-02-12T11:02:24.334Z,19.48
2023-02-12T11:04:53.005Z,18.30
2023-02-12T11:07:21.125Z,21.15
2023-02-12T11:09:50.400Z,13.60
2023-02-12T11:12:31.835Z,11.88
2023-02-12T11:15:02.901Z,17.77
2023-02-12T11:17:39.904Z,22.70
2023-02-12T11:20:16.051Z,20.85
2023-02-12T11:23:01.237Z,22.77
2023-02-12T11:25:34.452Z,21.27
2023-02-12T11:28:21.330Z,21.70
2023-02-12T11:30:54.597Z,22.13
2023-02-12T11:33:26.038Z,21.75
2023-02-12T11:35:59.751Z,21.80
2023-02-12T11:38:33.263Z,24.00
2023-02-12T11:41:05.652Z,24.30
2023-02-12T11:43:37.389Z,25.73
2023-02-12T11:46:06.757Z,29.27
2023-02-12T11:48:38.455Z,28.52
2023-02-12T11:51:09.316Z,29.23
2023-02-12T11:53:42.108Z,53.60
2023-02-12T11:56:12.097Z,29.20
2023-02-12T11:58:39.987Z,29.83
2023-02-12T12:01:17.422Z,28.00
2023-02-12T12:04:14.205Z,25.35
2023-02-12T12:06:48.810Z,30.50
2023-02-12T12:09:43.946Z,28.88
2023-02-12T12:12:37.848Z,30.77
2023-02-12T12:15:45.185Z,29.17
2023-02-12T12:18:37.630Z,30.43
2023-02-12T12:21:19.437Z,24.33
2023-02-12T12:24:01.057Z,27.40
2023-02-12T12:26:34.622Z,23.13
2023-02-12T12:29:24.332Z,26.90
2023-02-12T12:31:58.074Z,26.20
2023-02-12T12:34:27.872Z,23.17
2023-02-12T12:37:06.569Z,25.83
2023-02-12T12:39:55.880Z,22.63
2023-02-12T12:42:59.822Z,23.25
2023-02-12T12:46:03.252Z,22.98
2023-02-12T12:49:01.603Z,38.58
2023-02-12T12:51:43.532Z,24.88
2023-02-12T12:54:22.290Z,23.45
2023-02-12T12:57:03.360Z,21.63
2023-02-12T13:00:06.899Z,24.60
2023-02-12T13:02:51.583Z,22.50
2023-02-12T13:06:06.316Z,23.23
2023-02-12T13:08:33.198Z,24.27
2023-02-12T13:11:19.451Z,26.05
2023-02-12T13:13:50.648Z,24.42
2023-02-12T13:16:29.495Z,25.60
2023-02-12T13:19:41.622Z,22.67
2023-02-12T13:22:26.287Z,21.90
2023-02-12T13:25:08.235Z,25.02
2023-02-12T13:27:43.364Z,20.23
2023-02-12T13:30:20.615Z,25.30
2023-02-12T13:32:53.362Z,21.27
2023-02-12T13:35:23.648Z,23.60
2023-02-12T13:37:53.825Z,32.85
2023-02-12T13:40:29.491Z,45.55
2023-02-12T13:43:33.575Z,20.80
2023-02-12T13:46:13.636Z,21.17
2023-02-12T13:49:02.356Z,25.55
2023-02-12T13:51:48.851Z,20.65
2023-02-12T13:54:37.902Z,20.58
2023-02-12T13:57:13.109Z,23.50
2023-02-12T13:59:42.749Z,21.33
2023-02-12T14:02:12.998Z,17.90
2023-02-12T14:05:02.411Z,19.48
2023-02-12T14:07:52.758Z,20.88
2023-02-12T14:10:30.636Z,21.70
2023-02-12T14:13:19.968Z,18.33
2023-02-12T14:15:54.625Z,108.35
2023-02-12T14:18:26.170Z,19.73
2023-02-12T14:21:11.683Z,17.88
2023-02-12T14:23:50.031Z,16.27
2023-02-12T14:26:19.487Z,111.22
2023-02-12T14:29:05.445Z,25.88
2023-02-12T14:31:34.163Z,24.73
2023-02-12T14:34:07.774Z,140.50
2023-02-12T14:36:42.789Z,36.00
2023-02-12T14:39:24.712Z,18.25
2023-02-12T14:41:57.402Z,20.55
2023-02-12T14:44:26.047Z,23.02
2023-02-12T14:46:55.319Z,20.77
2023-02-12T14:49:32.885Z,48.10
2023-02-12T14:52:07.991Z,18.58
2023-02-12T14:54:42.520Z,18.20
2023-02-12T14:57:26.417Z,33.00
2023-02-12T15:00:15.706Z,25.58
2023-02-12T15:03:04.978Z,19.40
2023-02-12T15:05:38.151Z,18.13
2023-02-12T15:08:14.051Z,20.67
2023-02-12T15:10:47.497Z,22.77
2023-02-12T15:13:30.276Z,16.73
2023-02-12T15:16:13.688Z,27.10
2023-02-12T15:18:49.350Z,36.47
2023-02-12T15:21:32.191Z,20.93
2023-02-12T15:24:11.932Z,24.90
2023-02-12T15:26:49.030Z,23.37
2023-02-12T15:29:28.107Z,22.80
2023-02-12T15:32:00.879Z,21.57
2023-02-12T15:34:31.948Z,19.73
2023-02-12T15:37:02.241Z,241.77
2023-02-12T15:39:43.485Z,120.53
2023-02-12T15:42:32.263Z,21.10
2023-02-12T15:45:14.470Z,18.47
2023-02-12T15:47:42.466Z,22.70
2023-02-12T15:50:14.524Z,21.77
2023-02-12T15:52:44.954Z,18.73
2023-02-12T15:55:18.415Z,19.17
2023-02-12T15:57:50.856Z,40.67
2023-02-12T16:00:41.665Z,26.27
2023-02-12T16:03:33.395Z,26.40
2023-02-12T16:06:16.972Z,21.33
2023-02-12T16:08:47.741Z,27.10
2023-02-12T16:11:20.093Z,24.13
2023-02-12T16:14:15.606Z,19.47
2023-02-12T16:16:51.539Z,21.90
2023-02-12T16:19:22.529Z,19.83
2023-02-12T16:21:56.592Z,25.07
2023-02-12T16:24:28.613Z,19.75
2023-02-12T16:26:57.452Z,17.77
2023-02-12T16:29:24.769Z,23.87
2023-02-12T16:32:01.331Z,18.37
2023-02-12T16:34:37.569Z,15.63
2023-02-12T16:37:36.217Z,16.87
2023-02-12T16:40:17.807Z,15.37
2023-02-12T16:42:47.719Z,13.90
2023-02-12T16:45:28.175Z,15.47
2023-02-12T16:48:16.558Z,16.03
2023-02-12T16:50:50.211Z,24.77
2023-02-12T16:53:47.489Z,21.10
2023-02-12T16:56:18.361Z,19.10
2023-02-12T16:58:48.453Z,19.13
2023-02-12T17:01:25.254Z,22.10
2023-02-12T17:03:53.636Z,19.60
2023-02-12T17:06:23.432Z,21.33
2023-02-12T17:08:50.846Z,18.83
2023-02-12T17:11:18.360Z,18.33
2023-02-12T17:13:50.077Z,25.30
2023-02-12T17:16:29.868Z,18.80
2023-02-12T17:18:57.799Z,20.47
2023-02-12T17:21:28.269Z,19.67
2023-02-12T17:23:55.361Z,24.80
2023-02-12T17:26:23.564Z,18.87
2023-02-12T17:28:50.510Z,39.53
2023-02-12T17:31:17.772Z,21.57
2023-02-12T17:33:44.773Z,24.33
2023-02-12T17:36:12.469Z,21.10
2023-02-12T17:38:39.467Z,24.27
2023-02-12T17:41:10.824Z,18.67
2023-02-12T17:43:37.840Z,20.07
2023-02-12T17:46:18.914Z,20.07
2023-02-12T17:48:45.940Z,15.37
2023-02-12T17:51:13.524Z,20.53
2023-02-12T17:53:41.193Z,19.33
2023-02-12T17:56:16.448Z,22.97
2023-02-12T17:58:44.397Z,19.10
2023-02-12T18:01:14.431Z,21.53
2023-02-12T18:03:41.399Z,20.53
2023-02-12T18:06:09.610Z,22.37
2023-02-12T18:08:36.563Z,21.87
2023-02-12T18:11:07.949Z,18.53
2023-02-12T18:13:35.000Z,18.80
2023-02-12T18:16:02.709Z,19.80
2023-02-12T18:18:29.615Z,21.33
2023-02-12T18:20:59.515Z,14.63
2023-02-12T18:23:26.702Z,15.97
2023-02-12T18:25:53.665Z,22.67
2023-02-12T18:28:20.573Z,11.93
2023-02-12T18:30:57.017Z,16.40
2023-02-12T18:33:24.693Z,14.83
2023-02-12T18:36:01.960Z,13.83
2023-02-12T18:38:29.334Z,12.87
2023-02-12T18:40:57.082Z,14.93
2023-02-12T18:43:24.863Z,12.37
2023-02-12T18:45:52.251Z,19.63
2023-02-12T18:48:19.180Z,18.30
2023-02-12T18:50:46.129Z,15.57
2023-02-12T18:53:13.210Z,14.40
2023-02-12T18:55:40.153Z,18.30
2023-02-12T18:58:07.322Z,16.70
2023-02-12T19:00:35.119Z,16.07
2023-02-12T19:03:02.325Z,17.70
2023-02-12T19:05:30.872Z,18.83
2023-02-12T19:07:57.890Z,14.30
2023-02-12T19:10:24.829Z,16.17
2023-02-12T19:12:51.908Z,19.40
2023-02-12T19:15:18.938Z,13.60
2023-02-12T19:17:46.002Z,14.17
2023-02-12T19:20:14.813Z,17.43
2023-02-12T19:22:42.295Z,18.80
2023-02-12T19:25:09.931Z,17.33
2023-02-12T19:27:37.019Z,16.53
2023-02-12T19:30:05.923Z,13.47
2023-02-12T19:32:33.305Z,14.33
2023-02-12T19:35:00.358Z,17.37
2023-02-12T19:37:27.462Z,23.03
2023-02-12T19:39:54.578Z,16.87
2023-02-12T19:42:21.523Z,15.80
2023-02-12T19:44:48.671Z,18.37
2023-02-12T19:47:16.466Z,15.83
2023-02-12T19:49:43.483Z,14.93
2023-02-12T19:52:10.476Z,16.33
2023-02-12T19:54:37.485Z,18.00
2023-02-12T19:57:09.379Z,18.57
2023-02-12T19:59:36.855Z,18.53
2023-02-12T20:02:04.476Z,15.37
2023-02-12T20:04:31.971Z,19.00
2023-02-12T20:06:59.135Z,16.07
2023-02-12T20:09:26.380Z,20.83
2023-02-12T20:11:53.774Z,42.13
2023-02-12T20:14:22.869Z,30.80
2023-02-12T20:16:51.285Z,31.10
2023-02-12T20:19:23.196Z,24.60
2023-02-12T20:21:55.278Z,19.10
2023-02-12T20:24:24.462Z,23.77
2023-02-12T20:26:52.231Z,24.60
2023-02-12T20:29:20.100Z,29.83
2023-02-12T20:31:47.742Z,31.10
2023-02-12T20:34:17.084Z,31.17
2023-02-12T20:36:48.224Z,33.77
2023-02-12T20:39:20.964Z,21.63
2023-02-12T20:41:48.756Z,20.60
2023-02-12T20:44:18.698Z,18.63
2023-02-12T20:46:47.324Z,23.93
2023-02-12T20:49:16.423Z,29.37
2023-02-12T20:51:44.652Z,28.03
2023-02-12T20:54:12.444Z,34.07
2023-02-12T20:56:39.678Z,34.40
2023-02-12T20:59:07.641Z,28.90
2023-02-12T21:01:39.355Z,35.40
2023-02-12T21:04:09.011Z,35.13
2023-02-12T21:06:36.915Z,35.97
2023-02-12T21:09:04.306Z,30.67
2023-02-12T21:11:31.261Z,29.43
2023-02-12T21:14:18.489Z,28.97
2023-02-12T21:16:46.775Z,38.70
2023-02-12T21:19:14.198Z,48.17
2023-02-12T21:21:42.347Z,57.87
2023-02-12T21:24:16.617Z,28.40
2023-02-12T21:26:43.953Z,43.57
2023-02-12T21:29:11.104Z,131.07
2023-02-12T21:31:41.296Z,66.77
2023-02-12T21:34:11.295Z,49.57
2023-02-12T21:36:40.694Z,49.80
2023-02-12T21:39:10.119Z,51.60
2023-02-12T21:41:39.332Z,49.10
2023-02-12T21:44:13.101Z,70.93
2023-02-12T21:46:40.704Z,53.10
2023-02-12T21:49:08.251Z,65.87
2023-02-12T21:51:41.308Z,65.40
2023-02-12T21:54:15.489Z,55.40
2023-02-12T21:56:44.298Z,68.93
2023-02-12T21:59:12.365Z,138.83
2023-02-12T22:01:43.685Z,59.93
2023-02-12T22:04:11.221Z,48.27
2023-02-12T22:06:40.011Z,124.67
2023-02-12T22:09:08.784Z,73.07
2023-02-12T22:11:36.955Z,47.13
2023-02-12T22:14:05.061Z,58.77
2023-02-12T22:16:32.371Z,38.67
2023-02-12T22:19:01.786Z,75.87
2023-02-12T22:21:30.670Z,40.13
2023-02-12T22:23:59.538Z,48.90
2023-02-12T22:26:28.465Z,87.47
2023-02-12T22:29:05.500Z,72.00
2023-02-12T22:31:34.869Z,94.83
2023-02-12T22:34:05.095Z,49.97
2023-02-12T22:36:35.693Z,64.30
2023-02-12T22:39:02.658Z,56.63
2023-02-12T22:41:29.881Z,51.93
2023-02-12T22:43:59.363Z,48.30
2023-02-12T22:46:26.701Z,38.40
2023-02-12T22:48:53.668Z,72.37
2023-02-12T22:51:26.925Z,47.70
2023-02-12T22:53:54.440Z,84.63
2023-02-12T22:56:22.160Z,75.07
2023-02-12T22:58:49.302Z,60.67
2023-02-12T23:01:18.337Z,57.63
2023-02-12T23:03:46.047Z,60.30
2023-02-12T23:06:15.882Z,68.27
2023-02-12T23:08:43.960Z,85.87
2023-02-12T23:11:12.164Z,83.30
2023-02-12T23:13:39.516Z,64.23
2023-02-12T23:16:06.674Z,64.93
2023-02-12T23:18:33.956Z,46.77
2023-02-12T23:21:01.553Z,50.10
2023-02-12T23:23:28.554Z,62.43
2023-02-12T23:25:55.819Z,40.17
2023-02-12T23:28:23.420Z,57.70
2023-02-12T23:30:51.625Z,40.90
2023-02-12T23:33:19.472Z,38.67
2023-02-12T23:35:47.675Z,40.57
2023-02-12T23:38:14.936Z,46.87
2023-02-12T23:40:42.772Z,39.97
2023-02-12T23:43:09.865Z,51.03
2023-02-12T23:45:37.085Z,46.60
2023-02-12T23:48:04.139Z,65.23
2023-02-12T23:50:32.205Z,53.23
2023-02-12T23:52:59.525Z,44.80
2023-02-12T23:55:26.552Z,37.00
2023-02-12T23:57:53.519Z,27.60
